Main page
METAR-TAF:

METAR-TAF

Airports :

Ouagadougou Airport

Ouagadougou, Burkina Faso

latitude: 12-21N, longitude: 001-31W, elevation: 316 m

Current weather observation

The report was made 44 minutes ago, at 06:00 UTC
Calm wind
Temperature 22°C
Humidity 94%
Pressure 1012 hPa
Visibility 10 km or more
Broken clouds at a height of 1000 ft

METAR: DFFD 180600Z 00000KT 9999 BKN010 22/21 Q1012 NOSIG

Time: 06:44 (06:44 UTC)

Forecast

The report was made 1 hour and 44 minutes ago, at 05:00 UTC
Forecast valid from 18 at 06 UTC to 19 at 12 UTC
Wind 8 kt from the West/Southwest
Visibility 10 km or more
Scattered clouds at a height of 2000 ft
Temporary
from 18 at 06 UTC to 18 at 10 UTC
Visibility: 4000 m
Broken clouds at a height of 1000 ft
mist
Temporary
from 18 at 15 UTC to 18 at 22 UTC
Visibility: 4000 m
Broken clouds at a height of 1600 ft
Few clouds at a height of 3000 ft, Cumulonimbus.

TAF: DFFD 180500Z 1806/1912 24008KT 9999 SCT020 TEMPO 1806/1810 4000 BR BKN010 TEMPO 1815/1822 4000 TSSHRA BKN016 FEW030CB

Weather observations and forecasts of more than 4000 airports (METAR and TAF reports).

The available stations are represented by yellow and red dots on the map.

Hover mouse over dot to see the name of the station.

Then click to see weather observations and forecasts.

To change the map : click on the green buttons with a black cross to zoom in, on the green button with a dash to zoom out, or on the green arrows for adjacent maps.


METAR-TAF: